createdAt,value
2023-02-03T00:05:28.768Z,5.67
2023-02-03T00:07:57.483Z,5.40
2023-02-03T00:10:25.931Z,5.13
2023-02-03T00:12:54.767Z,5.20
2023-02-03T00:15:23.664Z,5.80
2023-02-03T00:17:51.622Z,5.67
2023-02-03T00:20:19.833Z,6.13
2023-02-03T00:22:49.271Z,5.63
2023-02-03T00:25:17.319Z,5.67
2023-02-03T00:27:45.394Z,5.47
2023-02-03T00:30:14.393Z,5.07
2023-02-03T00:32:42.658Z,5.03
2023-02-03T00:35:10.622Z,4.37
2023-02-03T00:37:38.615Z,4.40
2023-02-03T00:40:08.791Z,3.60
2023-02-03T00:42:37.072Z,3.83
2023-02-03T00:45:05.665Z,3.30
2023-02-03T00:47:33.639Z,3.50
2023-02-03T00:50:01.599Z,4.10
2023-02-03T00:52:29.586Z,3.00
2023-02-03T00:54:57.559Z,2.67
2023-02-03T00:57:27.032Z,2.90
2023-02-03T00:59:55.901Z,2.80
2023-02-03T01:02:23.962Z,2.53
2023-02-03T01:04:52.013Z,2.67
2023-02-03T01:07:20.302Z,2.67
2023-02-03T01:09:48.277Z,2.33
2023-02-03T01:12:16.315Z,2.90
2023-02-03T01:14:45.728Z,4.13
2023-02-03T01:17:15.070Z,4.90
2023-02-03T01:19:43.042Z,5.87
2023-02-03T01:22:10.988Z,6.23
2023-02-03T01:24:39.034Z,7.50
2023-02-03T01:27:07.231Z,6.47
2023-02-03T01:29:36.087Z,7.30
2023-02-03T01:32:05.626Z,6.87
2023-02-03T01:34:33.639Z,5.97
2023-02-03T01:37:03.293Z,4.87
2023-02-03T01:39:31.707Z,5.47
2023-02-03T01:41:59.676Z,4.53
2023-02-03T01:44:40.132Z,4.10
2023-02-03T01:47:18.897Z,3.93
2023-02-03T01:49:53.250Z,3.70
2023-02-03T01:52:21.277Z,3.60
2023-02-03T01:54:52.998Z,3.67
2023-02-03T01:57:24.961Z,3.67
2023-02-03T01:59:57.112Z,3.43
2023-02-03T02:02:26.788Z,4.03
2023-02-03T02:05:01.197Z,3.60
2023-02-03T02:07:30.073Z,4.37
2023-02-03T02:09:59.405Z,4.10
2023-02-03T02:12:27.438Z,4.50
2023-02-03T02:14:55.726Z,4.60
2023-02-03T02:17:50.443Z,6.00
2023-02-03T02:21:00.375Z,6.00
2023-02-03T02:23:54.572Z,6.83
2023-02-03T02:26:56.302Z,6.80
2023-02-03T02:29:55.038Z,7.73
2023-02-03T02:32:36.429Z,6.60
2023-02-03T02:35:11.506Z,6.90
2023-02-03T02:37:49.321Z,7.40
2023-02-03T02:40:25.317Z,6.67
2023-02-03T02:43:05.830Z,6.80
2023-02-03T02:45:46.425Z,7.20
2023-02-03T02:48:24.130Z,7.37
2023-02-03T02:50:56.288Z,7.10
2023-02-03T02:53:29.811Z,6.70
2023-02-03T02:55:59.545Z,6.40
2023-02-03T02:58:29.159Z,6.30
2023-02-03T03:00:57.290Z,7.17
2023-02-03T03:03:27.030Z,7.20
2023-02-03T03:05:56.884Z,6.97
2023-02-03T03:08:31.685Z,8.27
2023-02-03T03:11:01.141Z,8.00
2023-02-03T03:13:33.531Z,8.13
2023-02-03T03:16:04.051Z,8.20
2023-02-03T03:18:38.581Z,9.07
2023-02-03T03:21:07.965Z,8.83
2023-02-03T03:23:39.583Z,8.77
2023-02-03T03:26:14.159Z,9.73
2023-02-03T03:28:48.998Z,8.90
2023-02-03T03:31:18.322Z,9.17
2023-02-03T03:33:49.477Z,9.87
2023-02-03T03:36:26.301Z,9.13
2023-02-03T03:39:01.036Z,8.63
2023-02-03T03:41:41.104Z,8.77
2023-02-03T03:44:13.572Z,8.63
2023-02-03T03:46:48.000Z,9.47
2023-02-03T03:49:19.166Z,8.13
2023-02-03T03:51:51.341Z,8.63
2023-02-03T03:54:23.226Z,8.23
2023-02-03T03:56:55.941Z,7.97
2023-02-03T03:59:25.349Z,7.07
2023-02-03T04:01:54.073Z,7.73
2023-02-03T04:04:25.486Z,7.40
2023-02-03T04:06:55.018Z,7.00
2023-02-03T04:09:22.971Z,6.37
2023-02-03T04:12:03.042Z,6.57
2023-02-03T04:14:32.255Z,6.37
2023-02-03T04:17:00.797Z,6.17
2023-02-03T04:19:30.253Z,6.60
2023-02-03T04:21:58.706Z,6.60
2023-02-03T04:24:26.751Z,6.50
2023-02-03T04:26:54.805Z,6.13
2023-02-03T04:29:22.824Z,6.80
2023-02-03T04:31:50.899Z,6.33
2023-02-03T04:34:18.921Z,6.63
2023-02-03T04:36:48.272Z,6.90
2023-02-03T04:39:16.220Z,7.03
2023-02-03T04:41:44.184Z,7.40
2023-02-03T04:44:12.161Z,7.37
2023-02-03T04:46:40.102Z,6.87
2023-02-03T04:49:11.454Z,7.37
2023-02-03T04:51:39.576Z,6.97
2023-02-03T04:54:09.148Z,6.57
2023-02-03T04:56:37.621Z,6.13
2023-02-03T04:59:05.638Z,6.80
2023-02-03T05:01:33.783Z,6.90
2023-02-03T05:04:01.925Z,6.13
2023-02-03T05:06:32.062Z,6.30
2023-02-03T05:09:00.274Z,6.60
2023-02-03T05:11:29.994Z,6.80
2023-02-03T05:13:58.044Z,6.17
2023-02-03T05:16:26.375Z,6.27
2023-02-03T05:18:54.441Z,6.97
2023-02-03T05:21:23.759Z,7.10
2023-02-03T05:23:51.779Z,6.30
2023-02-03T05:26:19.753Z,6.57
2023-02-03T05:28:49.598Z,6.53
2023-02-03T05:31:18.683Z,6.50
2023-02-03T05:33:46.857Z,6.73
2023-02-03T05:36:14.881Z,7.13
2023-02-03T05:38:43.021Z,5.87
2023-02-03T05:41:29.075Z,5.93
2023-02-03T05:43:58.434Z,6.20
2023-02-03T05:46:27.460Z,6.30
2023-02-03T05:48:55.431Z,6.93
2023-02-03T05:51:23.381Z,7.37
2023-02-03T05:53:51.655Z,7.70
2023-02-03T05:56:19.625Z,7.10
2023-02-03T05:58:47.625Z,8.77
2023-02-03T06:01:17.142Z,8.77
2023-02-03T06:03:46.338Z,9.93
2023-02-03T06:06:14.810Z,9.87
2023-02-03T06:08:43.135Z,10.50
2023-02-03T06:11:11.833Z,10.83
2023-02-03T06:13:40.938Z,11.30
2023-02-03T06:16:09.295Z,11.13
2023-02-03T06:18:38.625Z,11.53
2023-02-03T06:21:07.082Z,10.57
2023-02-03T06:23:35.136Z,11.57
2023-02-03T06:26:04.113Z,12.30
2023-02-03T06:28:33.460Z,11.33
2023-02-03T06:31:01.806Z,12.67
2023-02-03T06:33:30.032Z,12.30
2023-02-03T06:35:59.459Z,12.27
2023-02-03T06:38:27.525Z,12.53
2023-02-03T06:40:55.495Z,12.03
2023-02-03T06:43:23.473Z,12.17
2023-02-03T06:45:51.488Z,11.73
2023-02-03T06:48:19.488Z,12.97
2023-02-03T06:50:48.724Z,11.77
2023-02-03T06:53:18.666Z,12.43
2023-02-03T06:55:47.872Z,12.73
2023-02-03T06:58:16.003Z,13.33
2023-02-03T07:00:44.131Z,13.43
2023-02-03T07:03:12.106Z,13.80
2023-02-03T07:05:40.760Z,12.53
2023-02-03T07:08:08.856Z,13.47
2023-02-03T07:10:38.179Z,13.37
2023-02-03T07:13:06.937Z,12.50
2023-02-03T07:15:35.482Z,13.03
2023-02-03T07:18:03.764Z,13.17
2023-02-03T07:20:32.925Z,13.60
2023-02-03T07:23:00.914Z,14.00
2023-02-03T07:25:28.980Z,14.13
2023-02-03T07:27:58.425Z,14.20
2023-02-03T07:30:26.776Z,14.20
2023-02-03T07:32:55.388Z,12.53
2023-02-03T07:35:23.343Z,13.10
2023-02-03T07:37:51.353Z,14.50
2023-02-03T07:40:20.539Z,14.23
2023-02-03T07:42:50.315Z,14.53
2023-02-03T07:45:22.087Z,12.23
2023-02-03T07:47:53.089Z,13.13
2023-02-03T07:50:21.175Z,12.87
2023-02-03T07:52:51.731Z,12.13
2023-02-03T07:55:19.690Z,12.80
2023-02-03T07:57:47.729Z,13.73
2023-02-03T08:00:19.588Z,12.87
2023-02-03T08:02:48.062Z,12.43
2023-02-03T08:05:17.344Z,12.77
2023-02-03T08:07:46.424Z,13.17
2023-02-03T08:10:15.996Z,13.67
2023-02-03T08:12:45.358Z,12.33
2023-02-03T08:15:14.153Z,13.37
2023-02-03T08:17:44.519Z,13.17
2023-02-03T08:20:14.457Z,12.23
2023-02-03T08:22:42.392Z,11.80
2023-02-03T08:25:10.789Z,12.30
2023-02-03T08:27:38.885Z,11.37
2023-02-03T08:30:08.838Z,10.83
2023-02-03T08:32:37.052Z,11.33
2023-02-03T08:35:07.112Z,9.90
2023-02-03T08:37:35.128Z,11.67
2023-02-03T08:40:03.340Z,11.03
2023-02-03T08:42:34.258Z,12.07
2023-02-03T08:45:04.879Z,14.10
2023-02-03T08:47:36.822Z,12.30
2023-02-03T08:50:08.220Z,10.67
2023-02-03T08:52:36.403Z,11.27
2023-02-03T08:55:04.642Z,10.93
2023-02-03T08:57:34.749Z,11.97
2023-02-03T09:00:03.021Z,11.53
2023-02-03T09:02:31.282Z,10.87
2023-02-03T09:05:00.066Z,10.57
2023-02-03T09:07:30.051Z,10.33
2023-02-03T09:09:58.057Z,9.53
2023-02-03T09:12:26.041Z,9.57
2023-02-03T09:14:54.037Z,9.17
2023-02-03T09:17:22.063Z,9.93
2023-02-03T09:19:50.056Z,9.63
2023-02-03T09:22:18.048Z,10.27
2023-02-03T09:24:48.600Z,9.57
2023-02-03T09:27:16.690Z,9.23
2023-02-03T09:29:44.679Z,9.43
2023-02-03T09:32:15.480Z,9.73
2023-02-03T09:34:43.824Z,10.20
2023-02-03T09:37:11.804Z,10.47
2023-02-03T09:39:39.816Z,9.90
2023-02-03T09:42:34.848Z,9.10
2023-02-03T09:45:13.105Z,9.80
2023-02-03T09:47:43.626Z,9.70
2023-02-03T09:50:16.420Z,9.70
2023-02-03T09:52:45.276Z,8.67
2023-02-03T09:55:26.316Z,9.30
2023-02-03T09:58:02.230Z,9.57
2023-02-03T10:00:37.243Z,8.93
2023-02-03T10:03:14.042Z,7.93
2023-02-03T10:05:57.347Z,8.07
2023-02-03T10:08:38.003Z,9.77
2023-02-03T10:11:17.309Z,9.77
2023-02-03T10:13:54.476Z,8.83
2023-02-03T10:16:43.796Z,8.63
2023-02-03T10:19:15.742Z,8.90
2023-02-03T10:21:48.522Z,9.57
2023-02-03T10:24:20.162Z,9.57
2023-02-03T10:26:48.470Z,9.63
2023-02-03T10:29:21.779Z,8.73
2023-02-03T10:31:50.214Z,7.37
2023-02-03T10:34:19.800Z,7.40
2023-02-03T10:36:56.768Z,7.83
2023-02-03T10:39:40.578Z,7.23
2023-02-03T10:42:10.193Z,7.13
2023-02-03T10:44:42.619Z,7.00
2023-02-03T10:47:26.041Z,6.57
2023-02-03T10:49:55.575Z,7.13
2023-02-03T10:52:32.489Z,6.87
2023-02-03T10:55:01.184Z,7.33
2023-02-03T10:57:30.574Z,6.30
2023-02-03T11:00:09.743Z,6.03
2023-02-03T11:02:38.178Z,6.20
2023-02-03T11:05:24.924Z,5.73
2023-02-03T11:07:53.648Z,5.63
2023-02-03T11:10:29.791Z,5.27
2023-02-03T11:13:20.921Z,5.43
2023-02-03T11:15:59.566Z,5.17
2023-02-03T11:18:56.227Z,4.63
2023-02-03T11:21:26.137Z,4.63
2023-02-03T11:24:03.221Z,4.53
2023-02-03T11:26:36.035Z,4.37
2023-02-03T11:29:06.275Z,3.73
2023-02-03T11:31:37.408Z,3.63
2023-02-03T11:34:08.985Z,4.03
2023-02-03T11:36:37.521Z,4.47
2023-02-03T11:39:20.624Z,4.60
2023-02-03T11:41:49.465Z,4.67
2023-02-03T11:44:22.853Z,4.50
2023-02-03T11:46:56.392Z,4.53
2023-02-03T11:50:04.684Z,4.73
2023-02-03T11:52:48.776Z,4.50
2023-02-03T11:55:32.618Z,4.73
2023-02-03T11:58:24.258Z,5.40
2023-02-03T12:00:59.595Z,5.00
2023-02-03T12:03:54.643Z,5.87
2023-02-03T12:06:42.821Z,5.10
2023-02-03T12:09:23.205Z,4.87
2023-02-03T12:12:04.620Z,5.50
2023-02-03T12:14:47.046Z,5.87
2023-02-03T12:17:40.976Z,5.13
2023-02-03T12:20:30.353Z,5.50
2023-02-03T12:23:08.298Z,5.33
2023-02-03T12:25:49.051Z,5.60
2023-02-03T12:28:33.777Z,6.50
2023-02-03T12:31:13.305Z,5.27
2023-02-03T12:33:45.201Z,6.27
2023-02-03T12:36:22.142Z,5.63
2023-02-03T12:38:54.308Z,5.63
2023-02-03T12:41:27.342Z,6.30
2023-02-03T12:44:01.804Z,5.77
2023-02-03T12:46:33.287Z,8.10
2023-02-03T12:49:06.576Z,6.67
2023-02-03T12:51:40.412Z,6.37
2023-02-03T12:54:21.335Z,6.50
2023-02-03T12:56:54.950Z,6.20
2023-02-03T12:59:26.116Z,6.47
2023-02-03T13:01:58.971Z,7.17
2023-02-03T13:04:35.888Z,7.53
2023-02-03T13:07:12.915Z,6.73
2023-02-03T13:09:50.285Z,7.83
2023-02-03T13:12:30.325Z,7.50
2023-02-03T13:15:04.799Z,7.53
2023-02-03T13:17:42.228Z,7.33
2023-02-03T13:20:19.992Z,7.63
2023-02-03T13:22:49.733Z,7.90
2023-02-03T13:25:24.253Z,7.77
2023-02-03T13:28:02.823Z,8.43
2023-02-03T13:30:44.683Z,8.50
2023-02-03T13:33:52.196Z,8.53
2023-02-03T13:36:47.950Z,7.40
2023-02-03T13:39:42.922Z,7.03
2023-02-03T13:42:22.514Z,7.53
2023-02-03T13:45:01.363Z,7.77
2023-02-03T13:47:32.431Z,7.37
2023-02-03T13:50:04.023Z,7.57
2023-02-03T13:52:36.375Z,9.50
2023-02-03T13:55:07.042Z,10.13
2023-02-03T13:57:37.558Z,9.60
2023-02-03T14:00:27.980Z,9.17
2023-02-03T14:02:57.421Z,10.10
2023-02-03T14:05:43.845Z,11.60
2023-02-03T14:08:53.173Z,11.23
2023-02-03T14:11:42.933Z,12.43
2023-02-03T14:14:46.046Z,12.90
2023-02-03T14:18:05.970Z,13.27
2023-02-03T14:20:53.761Z,12.50
2023-02-03T14:23:28.469Z,13.73
2023-02-03T14:26:00.518Z,12.93
2023-02-03T14:28:39.693Z,15.47
2023-02-03T14:31:17.535Z,14.27
2023-02-03T14:34:09.988Z,15.83
2023-02-03T14:36:48.396Z,17.30
2023-02-03T14:39:58.224Z,17.37
2023-02-03T14:43:11.206Z,20.87
2023-02-03T14:46:06.162Z,17.00
2023-02-03T14:48:55.849Z,25.73
2023-02-03T14:51:36.324Z,28.20
2023-02-03T14:54:19.615Z,30.90
2023-02-03T14:57:11.287Z,28.90
2023-02-03T14:59:44.829Z,20.20
2023-02-03T15:02:19.064Z,19.07
2023-02-03T15:04:47.599Z,19.07
2023-02-03T15:07:39.236Z,18.43
2023-02-03T15:10:15.959Z,15.50
2023-02-03T15:12:49.594Z,14.37
2023-02-03T15:15:26.373Z,16.03
2023-02-03T15:17:58.103Z,14.07
2023-02-03T15:20:41.350Z,16.13
2023-02-03T15:23:21.465Z,14.33
2023-02-03T15:25:55.738Z,14.43
2023-02-03T15:28:25.703Z,15.73
2023-02-03T15:30:59.876Z,17.30
2023-02-03T15:33:32.867Z,18.17
2023-02-03T15:36:11.375Z,18.27
2023-02-03T15:38:43.088Z,15.93
2023-02-03T15:41:18.233Z,16.30
2023-02-03T15:43:48.041Z,15.87
2023-02-03T15:46:21.240Z,12.90
2023-02-03T15:48:54.863Z,10.33
2023-02-03T15:51:29.745Z,8.93
2023-02-03T15:54:02.280Z,8.63
2023-02-03T15:56:37.833Z,8.57
2023-02-03T15:59:06.245Z,6.80
2023-02-03T16:01:34.726Z,6.00
2023-02-03T16:04:14.699Z,5.93
2023-02-03T16:06:47.672Z,6.63
2023-02-03T16:09:30.817Z,6.23
2023-02-03T16:12:18.593Z,6.00
2023-02-03T16:14:47.022Z,6.20
2023-02-03T16:17:31.191Z,5.83
2023-02-03T16:20:25.696Z,5.70
2023-02-03T16:23:06.190Z,5.80
2023-02-03T16:25:36.221Z,6.43
2023-02-03T16:28:32.565Z,6.80
2023-02-03T16:31:20.881Z,7.13
2023-02-03T16:34:08.090Z,7.90
2023-02-03T16:36:58.653Z,8.13
2023-02-03T16:39:45.473Z,7.30
2023-02-03T16:42:35.550Z,7.30
2023-02-03T16:45:21.020Z,7.63
2023-02-03T16:48:06.343Z,8.40
2023-02-03T16:50:54.240Z,9.67
2023-02-03T16:53:25.380Z,9.53
2023-02-03T16:55:58.716Z,10.27
2023-02-03T16:58:26.758Z,11.03
2023-02-03T17:00:56.010Z,11.10
2023-02-03T17:03:25.672Z,11.53
2023-02-03T17:05:54.869Z,11.10
2023-02-03T17:08:26.867Z,11.80
2023-02-03T17:10:55.037Z,12.17
2023-02-03T17:13:24.425Z,11.90
2023-02-03T17:15:54.349Z,13.33
2023-02-03T17:18:22.797Z,11.60
2023-02-03T17:20:54.411Z,12.37
2023-02-03T17:23:23.839Z,13.23
2023-02-03T17:25:54.087Z,12.83
2023-02-03T17:28:22.134Z,13.30
2023-02-03T17:30:58.006Z,12.90
2023-02-03T17:33:26.615Z,13.57
2023-02-03T17:36:03.446Z,12.63
2023-02-03T17:38:36.778Z,13.83
2023-02-03T17:55:01.773Z,15.20
2023-02-03T17:57:29.941Z,14.93
2023-02-03T17:59:59.292Z,14.50
2023-02-03T18:02:27.401Z,14.00
2023-02-03T18:04:55.383Z,14.77
2023-02-03T18:07:23.347Z,14.30
2023-02-03T18:09:51.310Z,13.70
2023-02-03T18:12:20.650Z,13.63
2023-02-03T18:14:50.787Z,13.20
2023-02-03T18:17:18.751Z,13.23
2023-02-03T18:19:51.932Z,12.97
2023-02-03T18:22:23.828Z,12.60
2023-02-03T18:24:52.264Z,13.63
2023-02-03T18:27:21.639Z,13.13
2023-02-03T18:29:51.412Z,13.13
2023-02-03T18:32:19.920Z,13.07
2023-02-03T18:34:49.795Z,13.30
2023-02-03T18:37:17.808Z,14.33
2023-02-03T18:39:47.896Z,14.30
2023-02-03T18:42:16.155Z,13.90
2023-02-03T18:44:45.562Z,13.87
2023-02-03T18:47:13.556Z,14.23
2023-02-03T18:49:42.174Z,13.33
2023-02-03T18:52:10.155Z,13.43
2023-02-03T18:54:38.123Z,14.10
2023-02-03T18:57:06.212Z,14.50
2023-02-03T18:59:34.751Z,14.50
2023-02-03T19:02:04.111Z,14.60
2023-02-03T19:04:32.299Z,13.63
2023-02-03T19:07:00.362Z,14.00
2023-02-03T19:09:28.427Z,13.30
2023-02-03T19:11:58.660Z,13.87
2023-02-03T19:14:26.819Z,12.07
2023-02-03T19:16:54.980Z,13.00
2023-02-03T19:19:24.363Z,13.63
2023-02-03T19:21:52.720Z,15.03
2023-02-03T19:24:21.602Z,15.73
2023-02-03T19:26:49.665Z,15.17
2023-02-03T19:29:18.142Z,14.17
2023-02-03T19:31:48.740Z,14.63
2023-02-03T19:34:17.793Z,15.27
2023-02-03T19:36:47.861Z,14.10
2023-02-03T19:39:16.308Z,14.83
2023-02-03T19:41:44.565Z,14.50
2023-02-03T19:44:13.656Z,14.40
2023-02-03T19:46:42.207Z,14.80
2023-02-03T19:49:13.209Z,14.13
2023-02-03T19:51:41.339Z,14.20
2023-02-03T19:54:17.006Z,13.77
2023-02-03T19:56:45.634Z,13.97
2023-02-03T19:59:14.982Z,14.10
2023-02-03T20:01:43.402Z,14.60
2023-02-03T20:04:11.820Z,14.43
2023-02-03T20:06:40.025Z,14.37
2023-02-03T20:09:08.115Z,14.93
2023-02-03T20:11:37.599Z,15.53
2023-02-03T20:14:06.155Z,14.37
2023-02-03T20:16:35.443Z,14.97
2023-02-03T20:19:04.063Z,14.57
2023-02-03T20:21:32.377Z,14.47
2023-02-03T20:24:00.619Z,13.30
2023-02-03T20:26:28.626Z,13.23
2023-02-03T20:28:58.043Z,12.67
2023-02-03T20:31:26.284Z,11.37
2023-02-03T20:33:54.421Z,11.97
2023-02-03T20:36:22.409Z,12.37
2023-02-03T20:38:52.336Z,12.27
2023-02-03T20:41:20.737Z,11.53
2023-02-03T20:43:49.085Z,11.30
2023-02-03T20:46:19.987Z,10.67
2023-02-03T20:48:48.441Z,9.77
2023-02-03T20:51:18.280Z,9.10
2023-02-03T20:53:46.338Z,8.70
2023-02-03T20:56:21.381Z,9.43
2023-02-03T20:58:49.890Z,8.40
2023-02-03T21:01:20.770Z,8.60
2023-02-03T21:04:06.536Z,8.17
2023-02-03T21:06:35.804Z,8.40
2023-02-03T21:09:15.033Z,8.60
2023-02-03T21:11:43.959Z,9.10
2023-02-03T21:14:20.983Z,10.17
2023-02-03T21:16:51.742Z,10.13
2023-02-03T21:19:30.312Z,9.27
2023-02-03T21:21:58.969Z,11.93
2023-02-03T21:24:29.250Z,9.77
2023-02-03T21:26:58.464Z,9.17
2023-02-03T21:29:30.531Z,9.90
2023-02-03T21:32:00.734Z,9.93
2023-02-03T21:34:33.722Z,9.20
2023-02-03T21:37:14.113Z,8.93
2023-02-03T21:39:43.513Z,9.70
2023-02-03T21:45:41.166Z,10.00
2023-02-03T21:48:29.216Z,10.83
2023-02-03T21:50:58.398Z,13.87
2023-02-03T21:53:31.289Z,18.83
2023-02-03T21:56:16.542Z,12.53
2023-02-03T21:58:47.268Z,18.67
2023-02-03T22:01:19.842Z,14.67
2023-02-03T22:03:50.143Z,15.50
2023-02-03T22:06:22.731Z,13.07
2023-02-03T22:08:52.642Z,14.33
2023-02-03T22:11:22.494Z,13.13
2023-02-03T22:13:56.747Z,11.77
2023-02-03T22:16:26.539Z,11.63
2023-02-03T22:18:54.500Z,13.27
2023-02-03T22:21:22.774Z,12.37
2023-02-03T22:23:50.934Z,13.73
2023-02-03T22:26:19.943Z,13.13
2023-02-03T22:28:48.122Z,12.53
2023-02-03T22:31:16.662Z,12.47
2023-02-03T22:33:46.339Z,12.77
2023-02-03T22:36:15.825Z,11.93
2023-02-03T22:38:44.402Z,12.03
2023-02-03T22:41:13.131Z,12.47
2023-02-03T22:43:41.584Z,11.97
2023-02-03T22:46:11.757Z,12.13
2023-02-03T22:48:40.007Z,12.77
2023-02-03T22:51:09.581Z,11.27
2023-02-03T22:53:39.391Z,11.03
2023-02-03T22:56:07.764Z,12.00
2023-02-03T22:58:35.734Z,11.63
2023-02-03T23:01:03.768Z,11.57
2023-02-03T23:03:32.741Z,10.93
2023-02-03T23:06:00.940Z,11.00
2023-02-03T23:08:30.320Z,10.07
2023-02-03T23:10:58.688Z,10.13
2023-02-03T23:13:26.864Z,10.10
2023-02-03T23:15:54.893Z,9.83
2023-02-03T23:18:22.924Z,9.97
2023-02-03T23:20:53.630Z,10.23
2023-02-03T23:23:21.628Z,9.53
2023-02-03T23:25:50.950Z,9.57
2023-02-03T23:28:18.953Z,10.00
2023-02-03T23:30:47.097Z,9.23
2023-02-03T23:33:15.362Z,10.07
2023-02-03T23:35:49.295Z,9.67
2023-02-03T23:38:19.142Z,10.10
2023-02-03T23:40:49.835Z,9.90
2023-02-03T23:43:19.157Z,9.40
2023-02-03T23:45:47.508Z,9.77
2023-02-03T23:48:17.429Z,9.33
2023-02-03T23:50:45.406Z,9.20
2023-02-03T23:53:15.982Z,8.87
2023-02-03T23:55:43.954Z,8.37
2023-02-03T23:58:11.933Z,8.27
